Date,TemperatureHighF,TemperatureAvgF,TemperatureLowF,DewpointHighF,DewpointAvgF,DewpointLowF,HumidityHigh,HumidityAvg,HumidityLow,PressureMaxIn,PressureMinIn,WindSpeedMaxMPH,WindSpeedAvgMPH,GustSpeedMaxMPH,PrecipitationSumIn
2013-9-9,81,79,77,62,59,57,58,50,45,29.06,29.03,5,1,9,0.00
2013-9-10,79,76,73,63,62,60,71,61,52,29.06,29.03,6,1,7,0.00
2013-9-11,100,80,72,68,52,32,85,45,10,29.09,28.91,12,2,14,0.79
2013-9-12,87,69,51,71,54,34,97,66,16,29.00,28.82,8,2,14,0.79
2013-9-13,72,56,43,51,36,21,86,55,16,29.12,28.94,10,1,10,0.00
2013-9-14,78,56,40,47,32,18,92,49,12,29.15,29.03,7,1,8,0.00
2013-9-15,82,60,47,58,45,24,97,67,14,29.15,28.94,10,2,12,0.16
2013-9-16,69,56,47,59,48,34,97,77,27,29.29,29.06,7,1,9,0.04
2013-9-17,79,61,46,50,40,24,97,52,15,29.29,29.09,11,2,11,0.00
2013-9-18,89,71,59,63,48,27,84,53,12,29.12,28.97,7,1,8,0.91
2013-9-19,84,71,66,70,66,55,97,85,38,29.03,28.85,8,1,10,0.94
2013-9-20,84,70,61,70,65,54,97,86,37,28.91,28.70,9,2,16,0.59
2013-9-21,74,58,48,66,44,27,97,65,19,28.91,28.70,10,2,11,0.08
2013-9-22,76,56,44,52,36,21,93,58,15,29.03,28.85,6,1,9,0.00
2013-9-23,75,56,43,48,36,22,97,55,15,29.09,29.00,9,3,11,0.00
2013-9-24,78,58,44,48,36,22,96,52,15,29.06,28.85,9,2,10,0.00
2013-9-25,83,61,49,50,41,24,93,59,14,28.97,28.85,9,1,12,0.00
2013-9-26,86,62,49,56,40,24,95,52,13,29.09,28.91,8,1,12,0.00
2013-9-27,89,64,48,51,40,23,92,51,13,29.15,29.06,7,2,8,0.00
2013-9-28,88,67,52,52,44,27,88,51,13,29.12,28.94,7,1,10,0.00
2013-9-29,64,60,55,64,57,50,97,91,62,29.00,28.94,7,0,7,0.31
2013-9-30,79,63,55,63,54,34,97,79,21,28.97,28.88,9,1,10,0.00